PWSweather.com
Personal Weather Stations
Station Observations
ICAMBRID16
ChatterisGB PE16 6AY

ChatterisGB PE16 6AY

Lat: 52.45616, Lon: 0.05771

Elevation: 17

Station Type: Davis Vantage Pro 2

https://www.chatteris.biz

Latest ConditionsUpdated 2:40:30 PM GMT Thursday, Nov 14, 2019
Currently Today's Max Today's Min Today's Average
Temperature 44.2°F6.8°C 44.2°F6.8°C 39.2°F4.0°C 41.8°F5.4°C
Dew Point 42.3°F5.7°C 42.3°F5.7°C 36.9°F2.7°C 39.7°F4.3°C
Winds 4.0 mph ENE6.4 kmh ENE 12.1 mph -19.5 kmh - - 7.4 mph 11.9 kmh
Wind Gusts 10.1 mph16.3 kmh 24.0 mph38.6 kmh - -
Humidity 93% 94% 91% 92%
Pressure 29.44 in997.0 mb 29.44 in997.0 mb 29.24 in990.2 mb -
Precipitation - 0.31 in7.9 mm - -
Hour Temp Dew Point Humidity Winds Wind Gusts Pressure Precip Precip Rate Daily Precip Total
02:40 PM 44.2°F6.8°C 42.3°F5.7°C 93% 4.0 mph ENE6.4 kmh ENE 10.1 mph16.3 kmh 29.44 in997.0 mb 0.00 in0.0 mm 0.00 in0.0 mm 0.31 in7.9 mm
02:10 PM 43.5°F6.4°C 41.7°F5.4°C 93% 4.9 mph ENE7.9 kmh ENE 9.0 mph14.5 kmh 29.43 in996.6 mb 0.00 in0.0 mm 0.00 in0.0 mm 0.31 in7.9 mm
01:40 PM 43.2°F6.2°C 41.5°F5.3°C 94% 4.0 mph ESE6.4 kmh ESE 9.0 mph14.5 kmh 29.42 in996.3 mb 0.00 in0.0 mm 0.00 in0.0 mm 0.31 in7.9 mm
01:10 PM 42.3°F5.7°C 40.6°F4.8°C 94% 4.0 mph E6.4 kmh E 9.0 mph14.5 kmh 29.41 in995.9 mb 0.00 in0.0 mm 0.00 in0.0 mm 0.31 in7.9 mm
12:40 PM 41.7°F5.4°C 40.1°F4.5°C 94% 2.9 mph E4.7 kmh E 8.1 mph13.0 kmh 29.40 in995.6 mb 0.01 in0.3 mm 0.00 in0.0 mm 0.31 in7.9 mm
12:10 PM 41.5°F5.3°C 39.7°F4.3°C 93% 2.9 mph E4.7 kmh E 6.0 mph9.7 kmh 29.39 in995.3 mb 0.02 in0.5 mm 0.00 in0.0 mm 0.31 in7.9 mm
11:40 AM 41.0°F5.0°C 39.2°F4.0°C 93% 2.9 mph ESE4.7 kmh ESE 10.1 mph16.3 kmh 29.38 in994.9 mb 0.02 in0.5 mm 0.00 in0.0 mm 0.31 in7.9 mm
11:10 AM 41.0°F5.0°C 39.2°F4.0°C 93% 6.0 mph ESE9.7 kmh ESE 11.0 mph17.7 kmh 29.37 in994.6 mb 0.06 in1.5 mm 0.00 in0.0 mm 0.30 in7.6 mm
10:40 AM 42.3°F5.7°C 40.5°F4.7°C 93% 8.1 mph SE13.0 kmh SE 15.0 mph24.1 kmh 29.36 in994.2 mb 0.06 in1.5 mm 0.00 in0.0 mm 0.28 in7.1 mm
10:10 AM 42.3°F5.7°C 40.5°F4.7°C 93% 6.0 mph E9.7 kmh E 14.0 mph22.5 kmh 29.34 in993.6 mb 0.06 in1.5 mm 0.02 in0.5 mm 0.24 in6.1 mm
09:40 AM 42.1°F5.6°C 40.3°F4.6°C 93% 8.1 mph ENE13.0 kmh ENE 15.0 mph24.1 kmh 29.33 in993.2 mb 0.05 in1.3 mm 0.00 in0.0 mm 0.21 in5.3 mm
09:10 AM 42.1°F5.6°C 40.3°F4.6°C 93% 6.9 mph E11.1 kmh E 15.0 mph24.1 kmh 29.32 in992.9 mb 0.06 in1.5 mm 0.00 in0.0 mm 0.19 in4.8 mm
08:40 AM 42.3°F5.7°C 40.5°F4.7°C 93% 8.1 mph E13.0 kmh E 17.0 mph27.4 kmh 29.31 in992.6 mb 0.06 in1.5 mm 0.00 in0.0 mm 0.17 in4.3 mm
08:10 AM 42.4°F5.8°C 40.6°F4.8°C 93% 10.1 mph ENE16.3 kmh ENE 16.1 mph25.9 kmh 29.30 in992.2 mb 0.08 in2.0 mm 0.02 in0.5 mm 0.13 in3.3 mm
07:40 AM 43.2°F6.2°C 41.0°F5.0°C 92% 12.1 mph E19.5 kmh E 24.0 mph38.6 kmh 29.28 in991.5 mb 0.07 in1.8 mm 0.02 in0.5 mm 0.10 in2.5 mm
07:10 AM 43.2°F6.2°C 41.0°F5.0°C 92% 10.1 mph ENE16.3 kmh ENE 18.0 mph29.0 kmh 29.27 in991.2 mb 0.06 in1.5 mm 0.06 in1.5 mm 0.06 in1.5 mm
06:40 AM 43.2°F6.2°C 40.6°F4.8°C 91% 10.1 mph NE16.3 kmh NE 18.0 mph29.0 kmh 29.26 in990.9 mb 0.03 in0.8 mm 0.06 in1.5 mm 0.03 in0.8 mm
06:10 AM 43.2°F6.2°C 40.6°F4.8°C 91% 10.1 mph E16.3 kmh E 18.0 mph29.0 kmh 29.26 in990.9 mb 0.00 in0.0 mm 0.00 in0.0 mm 0.00 in0.0 mm
05:40 AM 42.6°F5.9°C 40.1°F4.5°C 91% 8.9 mph NE14.3 kmh NE 17.0 mph27.4 kmh 29.24 in990.2 mb 0.00 in0.0 mm 0.00 in0.0 mm 0.00 in0.0 mm
05:10 AM 42.4°F5.8°C 39.9°F4.4°C 91% 8.1 mph ENE13.0 kmh ENE 15.0 mph24.1 kmh 29.24 in990.2 mb 0.00 in0.0 mm 0.00 in0.0 mm 0.00 in0.0 mm
04:40 AM 42.4°F5.8°C 39.9°F4.4°C 91% 8.1 mph NE13.0 kmh NE 17.0 mph27.4 kmh 29.24 in990.2 mb 0.00 in0.0 mm 0.00 in0.0 mm 0.00 in0.0 mm
04:10 AM 41.9°F5.5°C 39.4°F4.1°C 91% 8.9 mph E14.3 kmh E 15.0 mph24.1 kmh 29.24 in990.2 mb 0.00 in0.0 mm 0.00 in0.0 mm 0.00 in0.0 mm
03:40 AM 41.5°F5.3°C 39.2°F4.0°C 91% 8.1 mph NE13.0 kmh NE 15.0 mph24.1 kmh 29.24 in990.2 mb 0.00 in0.0 mm 0.00 in0.0 mm 0.00 in0.0 mm
03:10 AM 40.8°F4.9°C 38.7°F3.7°C 92% 8.9 mph ENE14.3 kmh ENE 15.0 mph24.1 kmh 29.25 in990.5 mb 0.00 in0.0 mm 0.00 in0.0 mm 0.00 in0.0 mm
02:40 AM 40.3°F4.6°C 38.1°F3.4°C 92% 8.1 mph ENE13.0 kmh ENE 14.1 mph22.7 kmh 29.25 in990.5 mb 0.00 in0.0 mm 0.00 in0.0 mm 0.00 in0.0 mm
02:10 AM 39.9°F4.4°C 37.8°F3.2°C 92% 8.1 mph E13.0 kmh E 14.1 mph22.7 kmh 29.25 in990.5 mb 0.00 in0.0 mm 0.00 in0.0 mm 0.00 in0.0 mm
01:40 AM 39.6°F4.2°C 37.4°F3.0°C 92% 8.1 mph E13.0 kmh E 15.0 mph24.1 kmh 29.24 in990.2 mb 0.00 in0.0 mm 0.00 in0.0 mm 0.00 in0.0 mm
01:10 AM 39.2°F4.0°C 36.9°F2.7°C 91% 8.9 mph E14.3 kmh E 15.0 mph24.1 kmh 29.25 in990.5 mb 0.00 in0.0 mm 0.00 in0.0 mm 0.00 in0.0 mm
12:40 AM 39.2°F4.0°C 36.9°F2.7°C 91% 8.9 mph E14.3 kmh E 17.0 mph27.4 kmh 29.25 in990.5 mb 0.00 in0.0 mm 0.00 in0.0 mm 0.00 in0.0 mm
12:10 AM 39.7°F4.3°C 37.4°F3.0°C 91% 8.1 mph E13.0 kmh E 14.1 mph22.7 kmh 29.26 in990.9 mb 0.00 in0.0 mm 0.00 in0.0 mm 0.00 in0.0 mm